sensor_id;sensor_type;location;lat;lon;timestamp;temperature;humidity
54938;DHT22;52756;52.826;6.214;2022-12-13T00:00:16;-0.60;73.30
54938;DHT22;52756;52.826;6.214;2022-12-13T00:02:44;-0.60;73.20
54938;DHT22;52756;52.826;6.214;2022-12-13T00:05:10;-0.60;73.20
54938;DHT22;52756;52.826;6.214;2022-12-13T00:07:36;-0.60;73.20
54938;DHT22;52756;52.826;6.214;2022-12-13T00:10:03;-0.60;73.20
54938;DHT22;52756;52.826;6.214;2022-12-13T00:12:30;-0.60;73.20
54938;DHT22;52756;52.826;6.214;2022-12-13T00:14:55;-0.60;73.00
54938;DHT22;52756;52.826;6.214;2022-12-13T00:17:21;-0.60;72.90
54938;DHT22;52756;52.826;6.214;2022-12-13T00:19:47;-0.60;73.00
54938;DHT22;52756;52.826;6.214;2022-12-13T00:22:13;-0.70;72.90
54938;DHT22;52756;52.826;6.214;2022-12-13T00:24:39;-0.40;72.90
54938;DHT22;52756;52.826;6.214;2022-12-13T00:27:05;-0.70;72.60
54938;DHT22;52756;52.826;6.214;2022-12-13T00:29:31;-0.70;72.60
54938;DHT22;52756;52.826;6.214;2022-12-13T00:31:57;-0.70;72.60
54938;DHT22;52756;52.826;6.214;2022-12-13T00:34:23;-0.70;72.50
54938;DHT22;52756;52.826;6.214;2022-12-13T00:36:48;-0.80;72.50
54938;DHT22;52756;52.826;6.214;2022-12-13T00:39:15;-0.80;72.60
54938;DHT22;52756;52.826;6.214;2022-12-13T00:41:42;-0.80;72.60
54938;DHT22;52756;52.826;6.214;2022-12-13T00:44:10;-0.80;72.60
54938;DHT22;52756;52.826;6.214;2022-12-13T00:46:37;-0.80;72.60
54938;DHT22;52756;52.826;6.214;2022-12-13T00:49:04;-0.80;72.60
54938;DHT22;52756;52.826;6.214;2022-12-13T00:51:31;-0.80;72.70
54938;DHT22;52756;52.826;6.214;2022-12-13T00:53:58;-0.80;72.70
54938;DHT22;52756;52.826;6.214;2022-12-13T00:56:26;-0.80;72.70
54938;DHT22;52756;52.826;6.214;2022-12-13T00:58:53;-0.80;72.70
54938;DHT22;52756;52.826;6.214;2022-12-13T01:01:22;-0.80;72.70
54938;DHT22;52756;52.826;6.214;2022-12-13T01:03:48;-0.80;72.70
54938;DHT22;52756;52.826;6.214;2022-12-13T01:06:18;-0.80;72.70
54938;DHT22;52756;52.826;6.214;2022-12-13T01:08:45;-0.80;72.70
54938;DHT22;52756;52.826;6.214;2022-12-13T01:11:12;-0.80;72.70
54938;DHT22;52756;52.826;6.214;2022-12-13T01:13:38;-0.80;72.60
54938;DHT22;52756;52.826;6.214;2022-12-13T01:16:06;-0.90;72.50
54938;DHT22;52756;52.826;6.214;2022-12-13T01:18:32;-0.90;72.50
54938;DHT22;52756;52.826;6.214;2022-12-13T01:21:06;-0.90;72.50
54938;DHT22;52756;52.826;6.214;2022-12-13T01:23:32;-0.90;72.50
54938;DHT22;52756;52.826;6.214;2022-12-13T01:26:01;-0.90;72.50
54938;DHT22;52756;52.826;6.214;2022-12-13T01:28:27;-0.90;72.60
54938;DHT22;52756;52.826;6.214;2022-12-13T01:30:58;-0.90;72.50
54938;DHT22;52756;52.826;6.214;2022-12-13T01:33:25;-0.90;72.50
54938;DHT22;52756;52.826;6.214;2022-12-13T01:35:50;-0.90;72.50
54938;DHT22;52756;52.826;6.214;2022-12-13T01:38:16;-0.90;72.40
54938;DHT22;52756;52.826;6.214;2022-12-13T01:40:48;-0.90;72.40
54938;DHT22;52756;52.826;6.214;2022-12-13T01:43:30;-0.90;72.50
54938;DHT22;52756;52.826;6.214;2022-12-13T01:46:15;-1.00;72.40
54938;DHT22;52756;52.826;6.214;2022-12-13T01:51:18;-1.00;72.50
54938;DHT22;52756;52.826;6.214;2022-12-13T01:53:46;-1.00;72.40
54938;DHT22;52756;52.826;6.214;2022-12-13T01:56:18;-1.00;72.50
54938;DHT22;52756;52.826;6.214;2022-12-13T01:58:46;-1.00;72.50
54938;DHT22;52756;52.826;6.214;2022-12-13T02:01:13;-1.00;72.60
54938;DHT22;52756;52.826;6.214;2022-12-13T02:03:38;-1.00;72.60
54938;DHT22;52756;52.826;6.214;2022-12-13T02:06:18;-1.00;72.60
54938;DHT22;52756;52.826;6.214;2022-12-13T02:08:46;-1.00;72.70
54938;DHT22;52756;52.826;6.214;2022-12-13T02:11:12;-1.00;72.60
54938;DHT22;52756;52.826;6.214;2022-12-13T02:13:38;-1.10;72.20
54938;DHT22;52756;52.826;6.214;2022-12-13T02:32:07;-1.40;71.50
54938;DHT22;52756;52.826;6.214;2022-12-13T02:34:45;-1.40;71.70
54938;DHT22;52756;52.826;6.214;2022-12-13T02:37:25;-1.40;71.80
54938;DHT22;52756;52.826;6.214;2022-12-13T02:41:11;-1.40;72.00
54938;DHT22;52756;52.826;6.214;2022-12-13T02:43:12;-1.40;72.10
54938;DHT22;52756;52.826;6.214;2022-12-13T02:45:48;-1.40;72.30
54938;DHT22;52756;52.826;6.214;2022-12-13T02:48:22;-1.40;72.40
54938;DHT22;52756;52.826;6.214;2022-12-13T02:50:50;-1.40;72.40
54938;DHT22;52756;52.826;6.214;2022-12-13T02:53:18;-1.50;72.10
54938;DHT22;52756;52.826;6.214;2022-12-13T02:55:46;-1.50;72.20
54938;DHT22;52756;52.826;6.214;2022-12-13T02:58:13;-1.40;72.40
54938;DHT22;52756;52.826;6.214;2022-12-13T03:15:12;-1.50;72.50
54938;DHT22;52756;52.826;6.214;2022-12-13T03:17:44;-1.50;72.40
54938;DHT22;52756;52.826;6.214;2022-12-13T03:20:15;-1.50;72.50
54938;DHT22;52756;52.826;6.214;2022-12-13T03:22:42;-1.50;72.50
54938;DHT22;52756;52.826;6.214;2022-12-13T03:25:08;-1.50;72.50
54938;DHT22;52756;52.826;6.214;2022-12-13T03:27:34;-1.50;72.50
54938;DHT22;52756;52.826;6.214;2022-12-13T03:29:59;-1.40;72.50
54938;DHT22;52756;52.826;6.214;2022-12-13T03:32:25;-1.30;72.60
54938;DHT22;52756;52.826;6.214;2022-12-13T03:34:51;-1.50;72.60
54938;DHT22;52756;52.826;6.214;2022-12-13T03:37:16;-1.50;72.60
54938;DHT22;52756;52.826;6.214;2022-12-13T03:39:42;-1.50;72.60
54938;DHT22;52756;52.826;6.214;2022-12-13T03:42:08;-1.50;72.50
54938;DHT22;52756;52.826;6.214;2022-12-13T03:44:33;-1.50;72.60
54938;DHT22;52756;52.826;6.214;2022-12-13T03:46:59;-1.50;72.50
54938;DHT22;52756;52.826;6.214;2022-12-13T03:49:25;-1.50;72.50
54938;DHT22;52756;52.826;6.214;2022-12-13T03:51:50;-1.50;72.50
54938;DHT22;52756;52.826;6.214;2022-12-13T03:54:16;-1.40;72.50
54938;DHT22;52756;52.826;6.214;2022-12-13T03:56:42;-1.50;72.40
54938;DHT22;52756;52.826;6.214;2022-12-13T03:59:07;-1.50;72.30
54938;DHT22;52756;52.826;6.214;2022-12-13T04:01:33;-1.50;72.30
54938;DHT22;52756;52.826;6.214;2022-12-13T04:03:59;-1.50;72.30
54938;DHT22;52756;52.826;6.214;2022-12-13T04:06:24;-1.50;72.20
54938;DHT22;52756;52.826;6.214;2022-12-13T04:08:51;-1.50;72.20
54938;DHT22;52756;52.826;6.214;2022-12-13T04:11:17;-1.50;72.20
54938;DHT22;52756;52.826;6.214;2022-12-13T04:14:01;-1.50;72.20
54938;DHT22;52756;52.826;6.214;2022-12-13T04:16:27;-1.50;72.20
54938;DHT22;52756;52.826;6.214;2022-12-13T04:18:52;-1.50;72.10
54938;DHT22;52756;52.826;6.214;2022-12-13T04:21:18;-1.50;72.10
54938;DHT22;52756;52.826;6.214;2022-12-13T04:23:44;-1.50;72.00
54938;DHT22;52756;52.826;6.214;2022-12-13T04:26:09;-1.60;71.90
54938;DHT22;52756;52.826;6.214;2022-12-13T04:28:35;-1.60;72.00
54938;DHT22;52756;52.826;6.214;2022-12-13T04:31:01;-1.60;72.00
54938;DHT22;52756;52.826;6.214;2022-12-13T04:33:26;-1.60;71.90
54938;DHT22;52756;52.826;6.214;2022-12-13T04:35:52;-1.60;71.80
54938;DHT22;52756;52.826;6.214;2022-12-13T04:38:18;-1.60;71.80
54938;DHT22;52756;52.826;6.214;2022-12-13T04:40:44;-1.60;71.80
54938;DHT22;52756;52.826;6.214;2022-12-13T04:43:10;-1.60;71.80
54938;DHT22;52756;52.826;6.214;2022-12-13T04:45:36;-1.60;71.80
54938;DHT22;52756;52.826;6.214;2022-12-13T04:48:01;-1.60;71.80
54938;DHT22;52756;52.826;6.214;2022-12-13T04:50:27;-1.60;71.90
54938;DHT22;52756;52.826;6.214;2022-12-13T04:52:53;-1.60;71.90
54938;DHT22;52756;52.826;6.214;2022-12-13T04:55:18;-1.60;71.80
54938;DHT22;52756;52.826;6.214;2022-12-13T04:57:44;-1.60;71.60
54938;DHT22;52756;52.826;6.214;2022-12-13T05:00:10;-1.60;71.60
54938;DHT22;52756;52.826;6.214;2022-12-13T05:02:38;-1.60;71.50
54938;DHT22;52756;52.826;6.214;2022-12-13T05:05:03;-1.70;71.50
54938;DHT22;52756;52.826;6.214;2022-12-13T05:07:29;-1.70;71.60
54938;DHT22;52756;52.826;6.214;2022-12-13T05:09:55;-1.70;71.40
54938;DHT22;52756;52.826;6.214;2022-12-13T05:12:20;-1.80;71.20
54938;DHT22;52756;52.826;6.214;2022-12-13T05:14:46;-1.80;71.00
54938;DHT22;52756;52.826;6.214;2022-12-13T05:17:12;-1.80;70.60
54938;DHT22;52756;52.826;6.214;2022-12-13T05:19:37;-1.80;70.30
54938;DHT22;52756;52.826;6.214;2022-12-13T05:22:03;-1.90;70.10
54938;DHT22;52756;52.826;6.214;2022-12-13T05:24:30;-1.90;70.20
54938;DHT22;52756;52.826;6.214;2022-12-13T05:26:56;-1.90;70.30
54938;DHT22;52756;52.826;6.214;2022-12-13T05:29:22;-2.00;70.50
54938;DHT22;52756;52.826;6.214;2022-12-13T05:31:48;-2.00;70.70
54938;DHT22;52756;52.826;6.214;2022-12-13T05:34:13;-1.90;70.90
54938;DHT22;52756;52.826;6.214;2022-12-13T05:36:39;-2.00;70.90
54938;DHT22;52756;52.826;6.214;2022-12-13T05:39:05;-2.00;70.80
54938;DHT22;52756;52.826;6.214;2022-12-13T05:41:32;-2.00;70.70
54938;DHT22;52756;52.826;6.214;2022-12-13T05:43:59;-2.10;70.80
54938;DHT22;52756;52.826;6.214;2022-12-13T05:46:25;-2.00;71.10
54938;DHT22;52756;52.826;6.214;2022-12-13T05:48:51;-2.10;71.10
54938;DHT22;52756;52.826;6.214;2022-12-13T05:51:16;-2.10;70.90
54938;DHT22;52756;52.826;6.214;2022-12-13T05:53:42;-2.10;70.80
54938;DHT22;52756;52.826;6.214;2022-12-13T05:56:09;-2.10;70.90
54938;DHT22;52756;52.826;6.214;2022-12-13T05:58:36;-2.10;71.10
54938;DHT22;52756;52.826;6.214;2022-12-13T06:01:08;-2.10;71.20
54938;DHT22;52756;52.826;6.214;2022-12-13T06:03:34;-2.10;71.30
54938;DHT22;52756;52.826;6.214;2022-12-13T06:06:00;-2.10;71.40
54938;DHT22;52756;52.826;6.214;2022-12-13T06:08:26;-2.10;71.50
54938;DHT22;52756;52.826;6.214;2022-12-13T06:10:56;-2.10;71.40
54938;DHT22;52756;52.826;6.214;2022-12-13T06:13:22;-2.10;71.40
54938;DHT22;52756;52.826;6.214;2022-12-13T06:15:48;-2.20;71.20
54938;DHT22;52756;52.826;6.214;2022-12-13T06:18:14;-2.20;71.30
54938;DHT22;52756;52.826;6.214;2022-12-13T06:20:39;-2.20;71.50
54938;DHT22;52756;52.826;6.214;2022-12-13T06:23:05;-2.20;71.70
54938;DHT22;52756;52.826;6.214;2022-12-13T06:25:31;-2.20;71.90
54938;DHT22;52756;52.826;6.214;2022-12-13T06:27:57;-2.10;72.10
54938;DHT22;52756;52.826;6.214;2022-12-13T06:30:22;-2.10;72.20
54938;DHT22;52756;52.826;6.214;2022-12-13T06:32:48;-2.10;72.20
54938;DHT22;52756;52.826;6.214;2022-12-13T06:35:17;-2.10;72.30
54938;DHT22;52756;52.826;6.214;2022-12-13T06:37:42;-2.10;72.30
54938;DHT22;52756;52.826;6.214;2022-12-13T06:40:08;-2.10;72.00
54938;DHT22;52756;52.826;6.214;2022-12-13T06:42:34;-2.20;71.80
54938;DHT22;52756;52.826;6.214;2022-12-13T06:45:00;-2.10;71.90
54938;DHT22;52756;52.826;6.214;2022-12-13T06:47:25;-2.20;72.00
54938;DHT22;52756;52.826;6.214;2022-12-13T06:49:52;-2.20;71.60
54938;DHT22;52756;52.826;6.214;2022-12-13T06:52:17;-2.20;71.30
54938;DHT22;52756;52.826;6.214;2022-12-13T06:54:43;-2.30;71.20
54938;DHT22;52756;52.826;6.214;2022-12-13T06:57:12;-2.30;71.50
54938;DHT22;52756;52.826;6.214;2022-12-13T06:59:38;-2.30;72.30
54938;DHT22;52756;52.826;6.214;2022-12-13T07:02:04;-2.30;72.10
54938;DHT22;52756;52.826;6.214;2022-12-13T07:04:31;-2.30;72.20
54938;DHT22;52756;52.826;6.214;2022-12-13T07:06:56;-2.30;72.10
54938;DHT22;52756;52.826;6.214;2022-12-13T07:09:22;-2.30;72.00
54938;DHT22;52756;52.826;6.214;2022-12-13T07:11:48;-2.30;72.10
54938;DHT22;52756;52.826;6.214;2022-12-13T07:14:14;-2.30;72.30
54938;DHT22;52756;52.826;6.214;2022-12-13T07:16:39;-2.30;72.30
54938;DHT22;52756;52.826;6.214;2022-12-13T07:19:05;-2.20;72.30
54938;DHT22;52756;52.826;6.214;2022-12-13T07:21:31;-2.20;72.20
54938;DHT22;52756;52.826;6.214;2022-12-13T07:23:57;-2.20;72.20
54938;DHT22;52756;52.826;6.214;2022-12-13T07:26:23;-2.20;72.10
54938;DHT22;52756;52.826;6.214;2022-12-13T07:28:49;-2.20;72.10
54938;DHT22;52756;52.826;6.214;2022-12-13T07:31:16;-2.20;72.00
54938;DHT22;52756;52.826;6.214;2022-12-13T07:33:41;-2.20;72.00
54938;DHT22;52756;52.826;6.214;2022-12-13T07:36:19;-2.20;72.00
54938;DHT22;52756;52.826;6.214;2022-12-13T07:38:53;-2.20;72.00
54938;DHT22;52756;52.826;6.214;2022-12-13T07:41:20;-2.20;72.10
54938;DHT22;52756;52.826;6.214;2022-12-13T07:43:45;-2.20;72.10
54938;DHT22;52756;52.826;6.214;2022-12-13T07:46:11;-2.20;71.80
54938;DHT22;52756;52.826;6.214;2022-12-13T07:48:37;-2.20;71.30
54938;DHT22;52756;52.826;6.214;2022-12-13T07:51:08;-2.30;71.00
54938;DHT22;52756;52.826;6.214;2022-12-13T07:53:36;-2.40;70.70
54938;DHT22;52756;52.826;6.214;2022-12-13T07:56:03;-2.40;70.40
54938;DHT22;52756;52.826;6.214;2022-12-13T07:58:29;-2.50;70.40
54938;DHT22;52756;52.826;6.214;2022-12-13T08:01:03;-2.60;70.50
54938;DHT22;52756;52.826;6.214;2022-12-13T08:03:29;-2.60;70.70
54938;DHT22;52756;52.826;6.214;2022-12-13T08:05:59;-2.70;70.80
54938;DHT22;52756;52.826;6.214;2022-12-13T08:08:25;-2.70;71.00
54938;DHT22;52756;52.826;6.214;2022-12-13T08:10:50;-2.70;71.20
54938;DHT22;52756;52.826;6.214;2022-12-13T08:13:16;-2.80;71.50
54938;DHT22;52756;52.826;6.214;2022-12-13T08:15:42;-2.80;71.70
54938;DHT22;52756;52.826;6.214;2022-12-13T08:18:07;-2.80;71.90
54938;DHT22;52756;52.826;6.214;2022-12-13T08:20:33;-2.80;72.10
54938;DHT22;52756;52.826;6.214;2022-12-13T08:22:59;-2.80;72.30
54938;DHT22;52756;52.826;6.214;2022-12-13T08:25:25;-2.70;72.60
54938;DHT22;52756;52.826;6.214;2022-12-13T08:27:51;-2.70;72.70
54938;DHT22;52756;52.826;6.214;2022-12-13T08:30:17;-2.70;72.80
54938;DHT22;52756;52.826;6.214;2022-12-13T08:32:43;-2.70;72.90
54938;DHT22;52756;52.826;6.214;2022-12-13T08:35:09;-2.60;73.10
54938;DHT22;52756;52.826;6.214;2022-12-13T08:37:34;-2.60;73.20
54938;DHT22;52756;52.826;6.214;2022-12-13T08:40:00;-2.60;73.30
54938;DHT22;52756;52.826;6.214;2022-12-13T08:42:26;-2.50;73.50
54938;DHT22;52756;52.826;6.214;2022-12-13T08:44:52;-2.50;73.40
54938;DHT22;52756;52.826;6.214;2022-12-13T08:47:19;-2.50;73.30
54938;DHT22;52756;52.826;6.214;2022-12-13T08:49:45;-2.40;73.40
54938;DHT22;52756;52.826;6.214;2022-12-13T08:52:11;-2.40;73.40
54938;DHT22;52756;52.826;6.214;2022-12-13T08:54:37;-2.40;73.50
54938;DHT22;52756;52.826;6.214;2022-12-13T08:57:02;-2.30;73.70
54938;DHT22;52756;52.826;6.214;2022-12-13T08:59:28;-2.30;73.80
54938;DHT22;52756;52.826;6.214;2022-12-13T09:01:54;-2.20;73.90
54938;DHT22;52756;52.826;6.214;2022-12-13T09:04:19;-2.20;74.00
54938;DHT22;52756;52.826;6.214;2022-12-13T09:06:45;-2.20;74.10
54938;DHT22;52756;52.826;6.214;2022-12-13T09:09:11;-2.10;74.20
54938;DHT22;52756;52.826;6.214;2022-12-13T09:11:38;-2.10;74.30
54938;DHT22;52756;52.826;6.214;2022-12-13T09:14:05;-2.00;74.40
54938;DHT22;52756;52.826;6.214;2022-12-13T09:16:31;-2.00;74.40
54938;DHT22;52756;52.826;6.214;2022-12-13T09:19:01;-1.90;74.40
54938;DHT22;52756;52.826;6.214;2022-12-13T09:21:27;-1.90;74.80
54938;DHT22;52756;52.826;6.214;2022-12-13T09:23:53;-1.90;74.40
54938;DHT22;52756;52.826;6.214;2022-12-13T09:26:19;-1.80;74.60
54938;DHT22;52756;52.826;6.214;2022-12-13T09:28:45;-1.80;74.70
54938;DHT22;52756;52.826;6.214;2022-12-13T09:31:13;-1.70;74.90
54938;DHT22;52756;52.826;6.214;2022-12-13T09:33:39;-1.60;75.10
54938;DHT22;52756;52.826;6.214;2022-12-13T09:36:07;-1.60;75.20
54938;DHT22;52756;52.826;6.214;2022-12-13T09:38:34;-1.50;75.30
54938;DHT22;52756;52.826;6.214;2022-12-13T09:44:20;-1.30;75.50
54938;DHT22;52756;52.826;6.214;2022-12-13T09:46:47;-1.20;75.60
54938;DHT22;52756;52.826;6.214;2022-12-13T09:49:33;-1.20;76.00
54938;DHT22;52756;52.826;6.214;2022-12-13T09:52:04;-1.10;75.60
54938;DHT22;52756;52.826;6.214;2022-12-13T09:54:32;-1.00;75.60
54938;DHT22;52756;52.826;6.214;2022-12-13T09:56:58;-0.90;75.70
54938;DHT22;52756;52.826;6.214;2022-12-13T09:59:30;-0.90;75.60
54938;DHT22;52756;52.826;6.214;2022-12-13T10:02:02;-0.80;75.70
54938;DHT22;52756;52.826;6.214;2022-12-13T10:04:28;-0.70;75.70
54938;DHT22;52756;52.826;6.214;2022-12-13T10:06:55;-0.60;75.50
54938;DHT22;52756;52.826;6.214;2022-12-13T10:09:22;-0.60;75.50
54938;DHT22;52756;52.826;6.214;2022-12-13T10:11:50;-0.50;75.40
54938;DHT22;52756;52.826;6.214;2022-12-13T10:14:38;-0.50;75.40
54938;DHT22;52756;52.826;6.214;2022-12-13T10:17:07;-0.40;75.50
54938;DHT22;52756;52.826;6.214;2022-12-13T10:19:43;-0.40;75.40
54938;DHT22;52756;52.826;6.214;2022-12-13T10:22:19;-0.40;75.30
54938;DHT22;52756;52.826;6.214;2022-12-13T10:24:54;-0.30;75.50
54938;DHT22;52756;52.826;6.214;2022-12-13T10:27:27;-0.30;75.60
54938;DHT22;52756;52.826;6.214;2022-12-13T10:30:17;-0.20;75.60
54938;DHT22;52756;52.826;6.214;2022-12-13T10:32:55;-0.20;75.70
54938;DHT22;52756;52.826;6.214;2022-12-13T10:35:27;-0.10;75.80
54938;DHT22;52756;52.826;6.214;2022-12-13T10:37:56;0.00;75.90
54938;DHT22;52756;52.826;6.214;2022-12-13T10:40:29;0.00;75.80
54938;DHT22;52756;52.826;6.214;2022-12-13T10:43:21;0.10;75.80
54938;DHT22;52756;52.826;6.214;2022-12-13T10:51:14;0.30;75.60
54938;DHT22;52756;52.826;6.214;2022-12-13T10:53:45;0.30;75.60
54938;DHT22;52756;52.826;6.214;2022-12-13T10:56:11;0.40;75.60
54938;DHT22;52756;52.826;6.214;2022-12-13T10:58:40;0.40;75.50
54938;DHT22;52756;52.826;6.214;2022-12-13T11:03:56;0.50;75.40
54938;DHT22;52756;52.826;6.214;2022-12-13T11:06:24;0.50;75.40
54938;DHT22;52756;52.826;6.214;2022-12-13T11:08:51;0.50;75.30
54938;DHT22;52756;52.826;6.214;2022-12-13T11:11:24;0.60;75.30
54938;DHT22;52756;52.826;6.214;2022-12-13T11:13:54;0.60;75.30
54938;DHT22;52756;52.826;6.214;2022-12-13T11:16:38;0.70;75.20
54938;DHT22;52756;52.826;6.214;2022-12-13T11:19:10;0.70;75.20
54938;DHT22;52756;52.826;6.214;2022-12-13T11:21:45;0.70;75.00
54938;DHT22;52756;52.826;6.214;2022-12-13T11:24:25;0.70;75.00
54938;DHT22;52756;52.826;6.214;2022-12-13T11:30:07;0.80;75.00
54938;DHT22;52756;52.826;6.214;2022-12-13T11:32:50;0.80;75.00
54938;DHT22;52756;52.826;6.214;2022-12-13T11:40:48;0.80;74.70
54938;DHT22;52756;52.826;6.214;2022-12-13T11:43:24;0.80;74.60
54938;DHT22;52756;52.826;6.214;2022-12-13T11:45:54;0.80;74.50
54938;DHT22;52756;52.826;6.214;2022-12-13T11:50:59;0.80;74.40
54938;DHT22;52756;52.826;6.214;2022-12-13T11:53:31;0.80;74.40
54938;DHT22;52756;52.826;6.214;2022-12-13T11:56:21;0.90;74.60
54938;DHT22;52756;52.826;6.214;2022-12-13T12:01:53;0.90;74.70
54938;DHT22;52756;52.826;6.214;2022-12-13T12:04:47;0.90;74.70
54938;DHT22;52756;52.826;6.214;2022-12-13T12:12:32;0.90;74.60
54938;DHT22;52756;52.826;6.214;2022-12-13T12:15:15;0.90;74.60
54938;DHT22;52756;52.826;6.214;2022-12-13T12:17:43;0.90;74.60
54938;DHT22;52756;52.826;6.214;2022-12-13T12:20:12;0.90;74.50
54938;DHT22;52756;52.826;6.214;2022-12-13T12:23:03;1.00;74.50
54938;DHT22;52756;52.826;6.214;2022-12-13T12:25:47;1.00;74.40
54938;DHT22;52756;52.826;6.214;2022-12-13T12:33:56;1.00;74.10
54938;DHT22;52756;52.826;6.214;2022-12-13T12:36:32;1.00;73.80
54938;DHT22;52756;52.826;6.214;2022-12-13T12:50:24;1.00;73.50
54938;DHT22;52756;52.826;6.214;2022-12-13T12:55:37;1.00;73.10
54938;DHT22;52756;52.826;6.214;2022-12-13T13:04:06;1.10;72.80
54938;DHT22;52756;52.826;6.214;2022-12-13T13:06:40;1.10;72.90
54938;DHT22;52756;52.826;6.214;2022-12-13T13:09:10;1.10;72.90
54938;DHT22;52756;52.826;6.214;2022-12-13T13:11:40;1.10;72.80
54938;DHT22;52756;52.826;6.214;2022-12-13T13:14:26;1.10;72.70
54938;DHT22;52756;52.826;6.214;2022-12-13T13:16:52;1.10;72.60
54938;DHT22;52756;52.826;6.214;2022-12-13T13:29:30;1.10;72.60
54938;DHT22;52756;52.826;6.214;2022-12-13T13:32:04;1.10;72.50
54938;DHT22;52756;52.826;6.214;2022-12-13T13:34:35;1.10;72.60
54938;DHT22;52756;52.826;6.214;2022-12-13T13:37:03;1.10;72.60
54938;DHT22;52756;52.826;6.214;2022-12-13T13:45:01;1.20;72.50
54938;DHT22;52756;52.826;6.214;2022-12-13T13:47:42;1.20;72.40
54938;DHT22;52756;52.826;6.214;2022-12-13T13:58:04;1.10;72.40
54938;DHT22;52756;52.826;6.214;2022-12-13T14:09:48;1.10;72.10
54938;DHT22;52756;52.826;6.214;2022-12-13T14:30:50;0.90;72.30
54938;DHT22;52756;52.826;6.214;2022-12-13T14:33:21;0.90;72.20
54938;DHT22;52756;52.826;6.214;2022-12-13T14:35:58;0.90;72.50
54938;DHT22;52756;52.826;6.214;2022-12-13T14:38:27;0.90;72.50
54938;DHT22;52756;52.826;6.214;2022-12-13T14:40:55;0.90;72.50
54938;DHT22;52756;52.826;6.214;2022-12-13T14:43:29;0.90;72.50
54938;DHT22;52756;52.826;6.214;2022-12-13T14:46:01;0.90;72.50
54938;DHT22;52756;52.826;6.214;2022-12-13T14:48:31;0.90;72.40
54938;DHT22;52756;52.826;6.214;2022-12-13T14:50:58;0.80;72.40
54938;DHT22;52756;52.826;6.214;2022-12-13T14:53:37;0.80;72.40
54938;DHT22;52756;52.826;6.214;2022-12-13T14:56:10;0.80;72.40
54938;DHT22;52756;52.826;6.214;2022-12-13T14:58:37;0.80;72.40
54938;DHT22;52756;52.826;6.214;2022-12-13T15:01:24;0.80;72.50
54938;DHT22;52756;52.826;6.214;2022-12-13T15:03:50;0.80;72.50
54938;DHT22;52756;52.826;6.214;2022-12-13T15:06:17;0.80;72.60
54938;DHT22;52756;52.826;6.214;2022-12-13T15:08:45;0.80;72.60
54938;DHT22;52756;52.826;6.214;2022-12-13T15:11:11;0.70;72.60
54938;DHT22;52756;52.826;6.214;2022-12-13T15:13:47;0.80;72.70
54938;DHT22;52756;52.826;6.214;2022-12-13T15:18:46;0.70;72.70
54938;DHT22;52756;52.826;6.214;2022-12-13T15:21:21;0.70;72.70
54938;DHT22;52756;52.826;6.214;2022-12-13T15:23:48;0.80;72.80
54938;DHT22;52756;52.826;6.214;2022-12-13T15:26:21;0.70;72.80
54938;DHT22;52756;52.826;6.214;2022-12-13T15:28:54;0.70;72.80
54938;DHT22;52756;52.826;6.214;2022-12-13T15:31:20;0.60;72.80
54938;DHT22;52756;52.826;6.214;2022-12-13T15:33:47;0.60;72.80
54938;DHT22;52756;52.826;6.214;2022-12-13T15:36:17;0.60;72.70
54938;DHT22;52756;52.826;6.214;2022-12-13T15:39:03;0.60;72.70
54938;DHT22;52756;52.826;6.214;2022-12-13T15:41:35;0.60;72.70
54938;DHT22;52756;52.826;6.214;2022-12-13T15:44:15;0.60;72.70
54938;DHT22;52756;52.826;6.214;2022-12-13T15:46:44;0.50;72.60
54938;DHT22;52756;52.826;6.214;2022-12-13T15:49:40;0.50;72.60
54938;DHT22;52756;52.826;6.214;2022-12-13T15:55:21;0.50;72.50
54938;DHT22;52756;52.826;6.214;2022-12-13T15:57:32;0.40;72.20
54938;DHT22;52756;52.826;6.214;2022-12-13T16:03:13;0.40;72.10
54938;DHT22;52756;52.826;6.214;2022-12-13T16:05:48;0.30;72.00
54938;DHT22;52756;52.826;6.214;2022-12-13T16:08:26;0.30;72.20
54938;DHT22;52756;52.826;6.214;2022-12-13T16:10:53;0.30;72.20
54938;DHT22;52756;52.826;6.214;2022-12-13T16:13:26;0.30;72.20
54938;DHT22;52756;52.826;6.214;2022-12-13T16:15:55;0.20;72.20
54938;DHT22;52756;52.826;6.214;2022-12-13T16:18:24;0.20;72.30
54938;DHT22;52756;52.826;6.214;2022-12-13T16:20:52;0.20;72.30
54938;DHT22;52756;52.826;6.214;2022-12-13T16:23:18;0.20;72.30
54938;DHT22;52756;52.826;6.214;2022-12-13T16:25:43;0.10;72.30
54938;DHT22;52756;52.826;6.214;2022-12-13T16:28:13;0.10;72.30
54938;DHT22;52756;52.826;6.214;2022-12-13T16:33:22;0.10;72.30
54938;DHT22;52756;52.826;6.214;2022-12-13T16:35:49;0.00;72.30
54938;DHT22;52756;52.826;6.214;2022-12-13T16:38:15;0.00;72.30
54938;DHT22;52756;52.826;6.214;2022-12-13T16:40:43;0.00;72.30
54938;DHT22;52756;52.826;6.214;2022-12-13T16:43:16;0.50;72.50
54938;DHT22;52756;52.826;6.214;2022-12-13T16:45:43;-0.10;72.10
54938;DHT22;52756;52.826;6.214;2022-12-13T16:48:11;-0.10;72.10
54938;DHT22;52756;52.826;6.214;2022-12-13T16:50:40;-0.10;72.10
54938;DHT22;52756;52.826;6.214;2022-12-13T16:53:06;-0.10;72.20
54938;DHT22;52756;52.826;6.214;2022-12-13T16:55:32;-0.10;72.20
54938;DHT22;52756;52.826;6.214;2022-12-13T16:58:00;-0.20;72.10
54938;DHT22;52756;52.826;6.214;2022-12-13T17:00:27;0.30;72.50
54938;DHT22;52756;52.826;6.214;2022-12-13T17:02:54;-0.20;72.20
54938;DHT22;52756;52.826;6.214;2022-12-13T17:05:20;-0.20;72.30
54938;DHT22;52756;52.826;6.214;2022-12-13T17:07:46;-0.20;72.30
54938;DHT22;52756;52.826;6.214;2022-12-13T17:10:12;-0.30;72.30
54938;DHT22;52756;52.826;6.214;2022-12-13T17:12:38;-0.30;72.30
54938;DHT22;52756;52.826;6.214;2022-12-13T17:15:05;-0.30;72.20
54938;DHT22;52756;52.826;6.214;2022-12-13T17:17:31;-0.30;72.00
54938;DHT22;52756;52.826;6.214;2022-12-13T17:19:57;-0.40;71.80
54938;DHT22;52756;52.826;6.214;2022-12-13T17:22:22;-0.40;71.70
54938;DHT22;52756;52.826;6.214;2022-12-13T17:24:48;-0.40;71.80
54938;DHT22;52756;52.826;6.214;2022-12-13T17:27:14;-0.50;71.90
54938;DHT22;52756;52.826;6.214;2022-12-13T17:29:40;-0.50;71.90
54938;DHT22;52756;52.826;6.214;2022-12-13T17:32:05;-0.50;71.90
54938;DHT22;52756;52.826;6.214;2022-12-13T17:34:31;-0.50;71.90
54938;DHT22;52756;52.826;6.214;2022-12-13T17:36:57;-0.50;71.80
54938;DHT22;52756;52.826;6.214;2022-12-13T17:39:23;-0.60;71.60
54938;DHT22;52756;52.826;6.214;2022-12-13T17:41:49;-0.60;71.40
54938;DHT22;52756;52.826;6.214;2022-12-13T17:44:15;-0.70;71.40
54938;DHT22;52756;52.826;6.214;2022-12-13T17:46:41;-0.80;71.50
54938;DHT22;52756;52.826;6.214;2022-12-13T17:49:07;-0.80;71.70
54938;DHT22;52756;52.826;6.214;2022-12-13T17:51:33;-0.80;71.90
54938;DHT22;52756;52.826;6.214;2022-12-13T17:53:58;-0.80;72.10
54938;DHT22;52756;52.826;6.214;2022-12-13T17:56:24;-0.80;72.30
54938;DHT22;52756;52.826;6.214;2022-12-13T17:58:49;-0.90;72.30
54938;DHT22;52756;52.826;6.214;2022-12-13T18:01:21;-0.90;72.50
54938;DHT22;52756;52.826;6.214;2022-12-13T18:03:49;-0.90;72.70
54938;DHT22;52756;52.826;6.214;2022-12-13T18:06:15;-0.90;73.00
54938;DHT22;52756;52.826;6.214;2022-12-13T18:08:41;-0.90;73.00
54938;DHT22;52756;52.826;6.214;2022-12-13T18:11:09;-0.90;73.00
54938;DHT22;52756;52.826;6.214;2022-12-13T18:13:35;-0.90;73.10
54938;DHT22;52756;52.826;6.214;2022-12-13T18:16:05;-0.90;73.10